Moffatt, Texas
Current Conditions -  °F | °C
As of 2:55 PM on Friday 19 Dec 2014 (Local Time) from KTPL Reporting Station
Overcast Overcast  
Wind Chill: 44°   Ceiling: 600
Heat Index: 48°   Visibility: 6mi
Dew Point: 45°   Wind: 10mph
Humidity: 87%   Direction: 10°N
Pressure: 30.11"   Gusts: NA
Location:  31.0795°N, 97.3287°W
Report Text: KTPL 192055Z AUTO 01009KT 6SM OVC006 09/07 A3011 RMK AO1 57007
Loading
Personal Weather Stations






























Interactive Weather Map New forecast layout! Learn more

10-Day Weather Forecast

Advertisements
Track Severe Weather on mobile